createdAt,value
2019-04-10T00:05:45.680Z,4.87
2019-04-10T00:08:14.388Z,4.42
2019-04-10T00:10:43.798Z,4.45
2019-04-10T00:13:15.536Z,4.47
2019-04-10T00:15:44.474Z,4.25
2019-04-10T00:18:47.012Z,4.65
2019-04-10T00:21:15.630Z,4.90
2019-04-10T00:23:44.172Z,4.83
2019-04-10T00:26:13.197Z,4.22
2019-04-10T00:28:42.053Z,4.60
2019-04-10T00:31:11.102Z,4.03
2019-04-10T00:33:43.327Z,4.78
2019-04-10T00:36:12.156Z,4.33
2019-04-10T00:38:40.747Z,4.60
2019-04-10T00:41:10.192Z,4.05
2019-04-10T00:43:39.916Z,4.08
2019-04-10T00:46:08.900Z,4.27
2019-04-10T00:48:37.655Z,4.00
2019-04-10T00:51:06.766Z,4.17
2019-04-10T00:53:37.047Z,4.50
2019-04-10T00:56:05.841Z,5.10
2019-04-10T00:58:37.440Z,5.47
2019-04-10T01:01:06.147Z,4.53
2019-04-10T01:03:43.904Z,4.53
2019-04-10T01:06:13.833Z,4.25
2019-04-10T01:08:42.769Z,4.40
2019-04-10T01:11:11.473Z,4.62
2019-04-10T01:13:41.032Z,4.80
2019-04-10T01:16:09.839Z,4.42
2019-04-10T01:18:39.391Z,4.30
2019-04-10T01:21:08.339Z,4.60
2019-04-10T01:23:37.966Z,4.33
2019-04-10T01:26:07.222Z,4.60
2019-04-10T01:28:36.703Z,4.78
2019-04-10T01:31:05.287Z,4.55
2019-04-10T01:33:34.119Z,5.40
2019-04-10T01:36:02.803Z,4.45
2019-04-10T01:38:31.478Z,4.55
2019-04-10T01:40:59.976Z,4.05
2019-04-10T01:43:28.511Z,4.30
2019-04-10T01:45:57.903Z,4.95
2019-04-10T01:48:26.495Z,4.75
2019-04-10T01:50:55.159Z,4.75
2019-04-10T01:53:23.844Z,4.80
2019-04-10T01:55:53.404Z,5.00
2019-04-10T01:58:23.273Z,4.90
2019-04-10T02:00:54.239Z,5.22
2019-04-10T02:03:22.811Z,5.58
2019-04-10T02:05:52.550Z,4.60
2019-04-10T02:08:21.520Z,4.45
2019-04-10T02:10:50.194Z,5.05
2019-04-10T02:13:19.166Z,5.00
2019-04-10T02:15:47.721Z,4.92
2019-04-10T02:18:17.029Z,4.72
2019-04-10T02:20:45.801Z,4.67
2019-04-10T02:23:14.373Z,4.80
2019-04-10T02:25:43.201Z,5.30
2019-04-10T02:28:13.145Z,4.95
2019-04-10T02:30:43.724Z,5.10
2019-04-10T02:33:11.911Z,6.10
2019-04-10T02:35:40.496Z,5.00
2019-04-10T02:38:26.178Z,5.40
2019-04-10T02:40:39.321Z,6.08
2019-04-10T02:43:09.672Z,4.85
2019-04-10T02:45:38.758Z,4.70
2019-04-10T02:48:10.046Z,4.90
2019-04-10T02:50:38.935Z,4.62
2019-04-10T02:53:07.767Z,4.80
2019-04-10T02:55:36.559Z,5.25
2019-04-10T02:58:06.003Z,4.87
2019-04-10T03:00:36.074Z,4.85
2019-04-10T03:03:05.542Z,5.03
2019-04-10T03:05:34.661Z,4.60
2019-04-10T03:08:05.417Z,5.20
2019-04-10T03:10:41.870Z,5.00
2019-04-10T03:13:06.498Z,4.53
2019-04-10T03:15:35.958Z,4.62
2019-04-10T03:18:04.810Z,4.60
2019-04-10T03:20:34.184Z,5.60
2019-04-10T03:23:02.736Z,5.37
2019-04-10T03:25:31.195Z,5.62
2019-04-10T03:28:00.862Z,4.10
2019-04-10T03:30:30.184Z,5.00
2019-04-10T03:33:11.460Z,4.92
2019-04-10T03:35:42.976Z,5.42
2019-04-10T03:38:11.963Z,5.37
2019-04-10T03:40:41.505Z,5.70
2019-04-10T03:43:10.393Z,5.60
2019-04-10T03:45:39.007Z,5.50
2019-04-10T03:48:08.443Z,5.40
2019-04-10T03:50:37.072Z,6.10
2019-04-10T03:53:05.680Z,5.58
2019-04-10T03:55:34.886Z,5.62
2019-04-10T03:58:03.527Z,4.58
2019-04-10T04:00:32.167Z,4.95
2019-04-10T04:03:00.710Z,5.00
2019-04-10T04:05:29.173Z,5.12
2019-04-10T04:07:57.794Z,5.08
2019-04-10T04:10:26.765Z,5.05
2019-04-10T04:12:55.374Z,5.20
2019-04-10T04:15:24.062Z,5.95
2019-04-10T04:17:52.674Z,5.90
2019-04-10T04:20:21.217Z,5.97
2019-04-10T04:22:49.768Z,6.45
2019-04-10T04:25:18.253Z,4.67
2019-04-10T04:27:46.715Z,5.20
2019-04-10T04:30:32.087Z,5.65
2019-04-10T04:33:00.647Z,5.15
2019-04-10T04:35:30.764Z,6.50
2019-04-10T04:38:00.413Z,6.15
2019-04-10T04:40:29.949Z,5.97
2019-04-10T04:42:58.489Z,6.75
2019-04-10T04:45:27.844Z,6.25
2019-04-10T04:47:56.372Z,5.75
2019-04-10T04:50:24.996Z,6.53
2019-04-10T04:52:53.682Z,5.58
2019-04-10T04:55:22.220Z,5.28
2019-04-10T04:57:50.690Z,5.50
2019-04-10T05:00:19.396Z,6.87
2019-04-10T05:02:47.844Z,6.70
2019-04-10T05:05:16.455Z,6.97
2019-04-10T05:07:55.546Z,6.47
2019-04-10T05:10:15.408Z,6.60
2019-04-10T05:12:45.098Z,7.00
2019-04-10T05:15:13.958Z,7.50
2019-04-10T05:17:42.515Z,6.28
2019-04-10T05:20:11.235Z,7.72
2019-04-10T05:22:39.762Z,7.40
2019-04-10T05:25:08.993Z,6.58
2019-04-10T05:27:37.625Z,7.70
2019-04-10T05:30:07.121Z,6.37
2019-04-10T05:32:35.595Z,6.67
2019-04-10T05:35:08.199Z,7.37
2019-04-10T05:37:36.116Z,6.65
2019-04-10T05:40:07.577Z,7.90
2019-04-10T05:42:37.289Z,8.03
2019-04-10T05:45:07.174Z,6.60
2019-04-10T05:47:44.362Z,6.17
2019-04-10T05:50:13.159Z,7.25
2019-04-10T05:52:41.650Z,6.57
2019-04-10T06:05:09.759Z,6.83
2019-04-10T06:28:16.987Z,6.33
2019-04-10T06:31:06.204Z,7.07
2019-04-10T06:33:51.235Z,7.00
2019-04-10T06:36:27.835Z,7.90
2019-04-10T06:39:27.550Z,7.20
2019-04-10T06:42:53.182Z,7.77
2019-04-10T06:45:21.781Z,7.60
2019-04-10T06:57:11.747Z,7.30
2019-04-10T06:59:42.356Z,8.10
2019-04-10T07:02:22.018Z,7.10
2019-04-10T07:04:45.949Z,7.10
2019-04-10T07:07:15.154Z,8.40
2019-04-10T07:09:42.181Z,7.20
2019-04-10T07:12:10.836Z,7.40
2019-04-10T07:14:43.896Z,7.40
2019-04-10T07:17:10.692Z,6.77
2019-04-10T07:19:43.641Z,7.50
2019-04-10T07:22:12.936Z,7.47
2019-04-10T07:24:42.625Z,6.90
2019-04-10T07:27:11.952Z,8.47
2019-04-10T07:29:40.493Z,7.60
2019-04-10T07:32:10.879Z,7.37
2019-04-10T07:34:42.518Z,7.43
2019-04-10T07:37:14.658Z,7.83
2019-04-10T07:39:44.739Z,7.30
2019-04-10T07:42:25.298Z,7.50
2019-04-10T07:44:43.161Z,7.67
2019-04-10T07:47:11.676Z,8.07
2019-04-10T07:49:40.202Z,7.20
2019-04-10T07:52:08.754Z,7.70
2019-04-10T07:54:38.726Z,7.93
2019-04-10T07:57:08.357Z,7.97
2019-04-10T07:59:37.566Z,7.80
2019-04-10T08:02:08.433Z,8.37
2019-04-10T08:04:37.403Z,7.37
2019-04-10T08:07:09.517Z,8.10
2019-04-10T08:09:46.320Z,8.00
2019-04-10T08:12:24.036Z,8.20
2019-04-10T08:14:52.596Z,7.67
2019-04-10T08:17:23.750Z,8.90
2019-04-10T08:19:53.069Z,13.23
2019-04-10T08:22:23.586Z,7.63
2019-04-10T08:24:52.200Z,6.70
2019-04-10T08:27:21.348Z,6.37
2019-04-10T08:29:50.635Z,7.23
2019-04-10T08:32:19.166Z,7.70
2019-04-10T08:34:48.620Z,6.33
2019-04-10T08:37:18.862Z,7.67
2019-04-10T08:39:49.703Z,7.03
2019-04-10T08:42:18.678Z,7.20
2019-04-10T08:44:47.381Z,6.93
2019-04-10T08:47:17.077Z,7.00
2019-04-10T08:49:45.758Z,7.50
2019-04-10T08:52:14.885Z,6.63
2019-04-10T08:54:44.555Z,6.83
2019-04-10T08:57:13.725Z,6.40
2019-04-10T08:59:44.479Z,7.53
2019-04-10T09:02:13.502Z,7.10
2019-04-10T09:04:42.173Z,6.40
2019-04-10T09:07:11.639Z,7.80
2019-04-10T09:09:40.211Z,7.10
2019-04-10T09:12:09.393Z,6.87
2019-04-10T09:14:38.163Z,7.00
2019-04-10T09:17:07.006Z,6.93
2019-04-10T09:19:36.231Z,6.50
2019-04-10T09:22:05.883Z,6.23
2019-04-10T09:24:34.443Z,6.70
2019-04-10T09:27:02.974Z,6.33
2019-04-10T09:29:32.029Z,7.30
2019-04-10T09:32:02.104Z,7.03
2019-04-10T09:34:32.355Z,6.53
2019-04-10T09:37:01.786Z,7.17
2019-04-10T09:39:33.720Z,7.10
2019-04-10T09:42:03.353Z,6.60
2019-04-10T09:44:32.042Z,7.20
2019-04-10T09:47:00.563Z,7.67
2019-04-10T09:49:37.763Z,6.50
2019-04-10T09:52:00.691Z,7.57
2019-04-10T09:54:31.368Z,6.83
2019-04-10T09:57:01.071Z,7.27
2019-04-10T09:59:35.858Z,7.30
2019-04-10T10:02:00.502Z,7.30
2019-04-10T10:04:29.250Z,6.60
2019-04-10T10:06:57.764Z,7.40
2019-04-10T10:09:29.027Z,7.57
2019-04-10T10:11:56.601Z,6.87
2019-04-10T10:14:26.696Z,7.87
2019-04-10T10:16:55.989Z,8.17
2019-04-10T10:19:25.867Z,7.47
2019-04-10T10:21:54.640Z,6.63
2019-04-10T10:24:23.145Z,7.17
2019-04-10T10:26:51.623Z,7.10
2019-04-10T10:29:21.801Z,6.80
2019-04-10T10:31:52.192Z,7.13
2019-04-10T10:34:20.660Z,6.40
2019-04-10T10:36:52.844Z,7.23
2019-04-10T10:39:21.038Z,7.23
2019-04-10T10:41:50.943Z,6.57
2019-04-10T10:44:19.791Z,7.10
2019-04-10T10:46:49.437Z,6.87
2019-04-10T10:49:18.331Z,6.23
2019-04-10T10:51:46.817Z,7.10
2019-04-10T10:54:15.350Z,6.77
2019-04-10T10:56:44.715Z,7.33
2019-04-10T10:59:13.465Z,6.80
2019-04-10T11:01:42.128Z,7.63
2019-04-10T11:04:10.870Z,6.40
2019-04-10T11:06:51.634Z,7.30
2019-04-10T11:09:12.675Z,7.30
2019-04-10T11:11:41.223Z,6.73
2019-04-10T11:14:10.880Z,6.67
2019-04-10T11:16:41.049Z,6.70
2019-04-10T11:19:10.671Z,6.10
2019-04-10T11:21:40.444Z,7.67
2019-04-10T11:24:09.215Z,6.33
2019-04-10T11:26:37.792Z,6.20
2019-04-10T11:29:08.020Z,6.63
2019-04-10T11:31:38.279Z,6.00
2019-04-10T11:34:08.267Z,6.43
2019-04-10T11:36:36.983Z,6.30
2019-04-10T11:39:16.774Z,6.13
2019-04-10T11:41:39.408Z,6.87
2019-04-10T11:44:09.903Z,7.80
2019-04-10T11:46:41.880Z,6.90
2019-04-10T11:49:12.930Z,7.53
2019-04-10T11:51:39.338Z,7.80
2019-04-10T11:54:12.424Z,7.23
2019-04-10T11:56:38.514Z,6.40
2019-04-10T11:59:09.283Z,6.07
2019-04-10T12:01:39.207Z,6.10
2019-04-10T12:04:10.178Z,7.00
2019-04-10T12:06:40.320Z,6.23
2019-04-10T12:11:41.574Z,5.70
2019-04-10T12:14:11.127Z,5.50
2019-04-10T12:16:41.029Z,6.47
2019-04-10T12:19:09.606Z,6.50
2019-04-10T12:21:38.138Z,6.07
2019-04-10T12:24:07.409Z,6.53
2019-04-10T12:26:36.026Z,6.10
2019-04-10T12:29:04.759Z,6.00
2019-04-10T12:31:34.506Z,6.60
2019-04-10T12:34:03.304Z,6.20
2019-04-10T12:36:31.902Z,6.37
2019-04-10T12:39:00.449Z,6.30
2019-04-10T12:41:29.155Z,7.20
2019-04-10T12:43:59.038Z,7.07
2019-04-10T12:46:28.815Z,6.00
2019-04-10T12:48:59.739Z,6.77
2019-04-10T12:51:31.975Z,5.60
2019-04-10T12:54:01.145Z,6.10
2019-04-10T12:56:30.389Z,5.60
2019-04-10T12:58:59.313Z,6.13
2019-04-10T13:01:28.874Z,8.20
2019-04-10T13:03:58.248Z,6.17
2019-04-10T13:06:26.857Z,5.97
2019-04-10T13:09:04.010Z,6.50
2019-04-10T13:11:26.745Z,5.50
2019-04-10T13:13:55.412Z,6.60
2019-04-10T13:16:23.923Z,6.03
2019-04-10T13:18:52.446Z,6.43
2019-04-10T13:21:22.115Z,5.60
2019-04-10T13:23:51.021Z,6.17
2019-04-10T13:26:19.739Z,6.20
2019-04-10T13:28:48.282Z,6.07
2019-04-10T13:31:17.206Z,5.57
2019-04-10T13:33:46.822Z,5.37
2019-04-10T13:36:15.485Z,5.43
2019-04-10T13:38:44.400Z,5.67
2019-04-10T13:41:13.028Z,5.93
2019-04-10T13:43:42.307Z,5.30
2019-04-10T13:46:10.974Z,5.27
2019-04-10T13:48:39.742Z,5.67
2019-04-10T13:51:08.273Z,6.20
2019-04-10T13:53:37.683Z,5.93
2019-04-10T13:56:06.547Z,5.77
2019-04-10T13:58:35.390Z,5.60
2019-04-10T14:01:07.198Z,5.67
2019-04-10T14:03:36.537Z,6.40
2019-04-10T14:06:05.370Z,5.40
2019-04-10T14:08:56.074Z,5.37
2019-04-10T14:11:04.723Z,5.30
2019-04-10T14:13:33.448Z,5.40
2019-04-10T14:16:02.541Z,5.60
2019-04-10T14:18:31.025Z,5.00
2019-04-10T14:20:59.653Z,7.03
2019-04-10T14:23:29.626Z,5.57
2019-04-10T14:26:08.720Z,6.33
2019-04-10T14:28:37.513Z,5.00
2019-04-10T14:31:10.306Z,5.23
2019-04-10T14:33:40.142Z,4.73
2019-04-10T14:36:17.981Z,4.83
2019-04-10T14:38:47.417Z,5.80
2019-04-10T14:41:20.037Z,4.17
2019-04-10T14:43:48.583Z,4.93
2019-04-10T14:46:17.454Z,5.40
2019-04-10T14:48:47.102Z,5.80
2019-04-10T14:51:16.508Z,5.83
2019-04-10T14:53:45.159Z,5.70
2019-04-10T14:56:17.842Z,5.10
2019-04-10T14:58:48.682Z,5.93
2019-04-10T15:01:17.843Z,4.37
2019-04-10T15:03:46.678Z,4.27
2019-04-10T15:06:15.447Z,4.13
2019-04-10T15:08:43.964Z,4.13
2019-04-10T15:11:12.558Z,4.83
2019-04-10T15:13:42.307Z,4.43
2019-04-10T15:16:11.013Z,4.57
2019-04-10T15:18:40.577Z,4.67
2019-04-10T15:21:10.236Z,4.50
2019-04-10T15:23:39.151Z,4.90
2019-04-10T15:26:08.012Z,4.40
2019-04-10T15:28:36.578Z,3.73
2019-04-10T15:31:05.102Z,4.00
2019-04-10T15:33:33.586Z,3.60
2019-04-10T15:36:02.104Z,3.70
2019-04-10T15:38:30.587Z,3.80
2019-04-10T15:40:59.126Z,3.70
2019-04-10T15:43:27.926Z,3.73
2019-04-10T15:45:56.863Z,4.20
2019-04-10T15:48:25.591Z,3.90
2019-04-10T15:50:54.078Z,3.90
2019-04-10T15:53:22.540Z,3.70
2019-04-10T15:55:51.661Z,4.00
2019-04-10T15:58:21.413Z,5.77
2019-04-10T16:00:50.351Z,4.07
2019-04-10T16:03:19.547Z,4.17
2019-04-10T16:05:48.085Z,5.83
2019-04-10T16:08:16.688Z,4.27
2019-04-10T16:10:49.666Z,7.43
2019-04-10T16:13:25.426Z,5.27
2019-04-10T16:15:54.717Z,5.47
2019-04-10T16:18:24.937Z,5.20
2019-04-10T16:20:54.931Z,5.63
2019-04-10T16:23:27.481Z,4.80
2019-04-10T16:25:55.374Z,4.10
2019-04-10T16:28:23.891Z,4.10
2019-04-10T16:30:55.013Z,4.80
2019-04-10T16:33:23.657Z,4.57
2019-04-10T16:35:52.610Z,4.90
2019-04-10T16:38:21.116Z,4.00
2019-04-10T16:40:49.701Z,3.57
2019-04-10T16:43:18.230Z,4.27
2019-04-10T16:45:46.955Z,4.13
2019-04-10T16:48:16.943Z,4.00
2019-04-10T16:50:45.730Z,4.50
2019-04-10T16:53:14.291Z,4.07
2019-04-10T16:55:43.103Z,5.53
2019-04-10T16:58:11.785Z,4.40
2019-04-10T17:00:40.292Z,5.00
2019-04-10T17:03:09.511Z,4.07
2019-04-10T17:05:38.215Z,4.33
2019-04-10T17:08:07.788Z,3.53
2019-04-10T17:10:36.587Z,3.63
2019-04-10T17:13:07.468Z,3.53
2019-04-10T17:15:37.118Z,3.17
2019-04-10T17:18:06.538Z,3.80
2019-04-10T17:20:36.199Z,5.10
2019-04-10T17:23:06.082Z,3.57
2019-04-10T17:25:35.955Z,5.13
2019-04-10T17:28:04.873Z,4.07
2019-04-10T17:30:33.873Z,4.30
2019-04-10T17:33:02.838Z,3.87
2019-04-10T17:35:31.728Z,4.33
2019-04-10T17:38:00.320Z,3.53
2019-04-10T17:40:35.479Z,3.77
2019-04-10T17:42:59.095Z,3.67
2019-04-10T17:45:29.068Z,3.50
2019-04-10T17:47:57.964Z,4.47
2019-04-10T17:50:27.994Z,4.00
2019-04-10T17:52:56.819Z,3.73
2019-04-10T17:55:25.418Z,3.90
2019-04-10T17:57:56.112Z,3.60
2019-04-10T18:00:37.765Z,4.03
2019-04-10T18:03:07.483Z,4.07
2019-04-10T18:05:37.097Z,3.30
2019-04-10T18:08:06.116Z,3.60
2019-04-10T18:10:46.429Z,3.80
2019-04-10T18:13:05.325Z,3.60
2019-04-10T18:15:33.894Z,3.83
2019-04-10T18:18:03.275Z,3.87
2019-04-10T18:20:31.896Z,4.30
2019-04-10T18:23:00.955Z,4.07
2019-04-10T18:25:29.756Z,3.77
2019-04-10T18:27:58.324Z,4.33
2019-04-10T18:30:27.983Z,4.10
2019-04-10T18:32:56.588Z,3.90
2019-04-10T18:35:25.050Z,4.30
2019-04-10T18:37:53.605Z,4.00
2019-04-10T18:40:23.252Z,3.73
2019-04-10T18:43:00.291Z,3.60
2019-04-10T18:45:30.450Z,3.40
2019-04-10T18:47:58.987Z,4.40
2019-04-10T18:50:28.563Z,4.27
2019-04-10T18:52:57.114Z,4.53
2019-04-10T18:55:25.647Z,4.57
2019-04-10T18:57:54.906Z,5.07
2019-04-10T19:00:41.216Z,5.10
2019-04-10T19:03:11.303Z,6.20
2019-04-10T23:41:26.353Z,5.60
2019-04-10T23:43:55.779Z,6.10
2019-04-10T23:46:29.213Z,6.30
2019-04-10T23:48:59.211Z,5.55
2019-04-10T23:51:29.861Z,5.60
2019-04-10T23:54:55.850Z,4.90
2019-04-10T23:57:33.685Z,5.55
